Time;durP1;ratioP1;P1;durP2;ratioP2;P2;SDS_P1;SDS_P2;PMS_P1;PMS_P2;Temp;Humidity;BMP_temperature;BMP_pressure;BME280_temperature;BME280_humidity;BME280_pressure;Samples;Min_cycle;Max_cycle;Signal;HPM_P1;HPM_P2
2024/04/11 00:00:47;;;;;;;22.75;4.82;;;13.00;99.90;;;;;;5504725;26;20048;-43
2024/04/11 00:03:13;;;;;;;25.65;5.10;;;13.00;99.90;;;;;;5504523;26;19998;-45
2024/04/11 00:05:40;;;;;;;28.27;5.38;;;13.00;99.90;;;;;;5504801;26;19998;-44
2024/04/11 00:08:06;;;;;;;28.27;5.22;;;13.00;99.90;;;;;;5504768;26;20016;-44
2024/04/11 00:10:31;;;;;;;34.60;5.68;;;13.00;99.90;;;;;;5504714;26;19986;-44
2024/04/11 00:12:57;;;;;;;23.27;4.25;;;13.00;99.90;;;;;;5504236;26;20183;-45
2024/04/11 00:15:23;;;;;;;29.92;5.60;;;13.00;99.90;;;;;;5503783;26;19986;-43
2024/04/11 00:17:48;;;;;;;37.35;5.40;;;13.00;99.90;;;;;;5504413;26;19998;-43
2024/04/11 00:20:14;;;;;;;31.45;5.15;;;13.00;99.90;;;;;;5506569;26;20018;-45
2024/04/11 00:22:40;;;;;;;23.63;4.72;;;13.00;99.90;;;;;;5507082;26;19982;-46
2024/04/11 00:25:05;;;;;;;30.48;4.43;;;12.90;99.90;;;;;;5507836;26;19986;-45
2024/04/11 00:27:31;;;;;;;20.40;4.50;;;12.90;99.90;;;;;;5507961;26;19997;-46
2024/04/11 00:29:57;;;;;;;13.65;3.22;;;12.90;99.90;;;;;;5476884;26;20161;-45
2024/04/11 00:32:23;;;;;;;13.73;4.45;;;12.90;99.90;;;;;;5507044;26;20039;-43
2024/04/11 00:34:49;;;;;;;21.90;4.50;;;12.90;99.90;;;;;;5508166;26;20002;-44
2024/04/11 00:37:15;;;;;;;20.60;4.03;;;12.80;99.90;;;;;;5507635;26;20005;-46
2024/04/11 00:39:41;;;;;;;16.20;3.22;;;12.80;99.90;;;;;;5507265;26;19990;-45
2024/04/11 00:42:07;;;;;;;20.48;3.65;;;12.80;99.90;;;;;;5507933;26;19997;-47
2024/04/11 00:44:32;;;;;;;26.17;4.28;;;12.80;99.90;;;;;;5507984;26;19986;-46
2024/04/11 00:46:58;;;;;;;24.45;4.45;;;12.80;99.90;;;;;;5507095;26;19992;-47
2024/04/11 00:49:24;;;;;;;13.68;3.72;;;12.80;99.90;;;;;;5507063;26;19997;-43
2024/04/11 00:51:52;;;;;;;11.77;3.63;;;12.80;99.90;;;;;;5507796;26;19997;-44
2024/04/11 00:54:18;;;;;;;23.17;5.50;;;12.70;99.90;;;;;;5506945;26;19993;-43
2024/04/11 00:56:44;;;;;;;20.33;4.72;;;12.70;99.90;;;;;;5507573;26;19986;-43
2024/04/11 00:59:11;;;;;;;10.80;3.20;;;12.70;99.90;;;;;;5507366;26;19997;-47
2024/04/11 01:01:37;;;;;;;14.50;3.33;;;12.70;99.90;;;;;;5507599;26;19990;-45
2024/04/11 01:04:06;;;;;;;21.17;4.53;;;12.70;99.90;;;;;;5507686;26;19986;-44
2024/04/11 01:07:06;;;;;;;16.92;3.58;;;12.70;99.90;;;;;;5507698;26;19990;-44
2024/04/11 01:09:37;;;;;;;31.60;6.60;;;12.70;99.90;;;;;;5507680;26;19990;-47
2024/04/11 01:12:03;;;;;;;33.65;4.35;;;12.70;99.90;;;;;;5507524;26;19990;-44
2024/04/11 01:14:31;;;;;;;14.82;3.70;;;12.70;99.90;;;;;;5507265;26;19990;-46
2024/04/11 01:16:56;;;;;;;20.65;4.57;;;12.70;99.90;;;;;;5506445;26;19990;-45
2024/04/11 01:19:23;;;;;;;14.02;2.92;;;12.70;99.90;;;;;;5507520;26;20036;-43
2024/04/11 01:21:49;;;;;;;8.52;2.75;;;12.60;99.90;;;;;;5507403;26;19993;-43
2024/04/11 01:24:15;;;;;;;16.40;4.20;;;12.70;99.90;;;;;;5507321;26;19987;-43
2024/04/11 01:26:41;;;;;;;18.67;4.63;;;12.60;99.90;;;;;;5507165;26;20168;-44
2024/04/11 01:29:07;;;;;;;20.95;3.63;;;12.60;99.90;;;;;;5506183;26;20039;-45
2024/04/11 01:31:37;;;;;;;23.42;4.47;;;12.70;99.90;;;;;;5506979;26;19990;-44
2024/04/11 01:34:04;;;;;;;21.02;5.88;;;12.60;99.90;;;;;;5507034;26;19986;-44
2024/04/11 01:36:30;;;;;;;26.15;4.80;;;12.70;99.90;;;;;;5507126;26;19986;-43
2024/04/11 01:38:56;;;;;;;25.30;4.25;;;12.70;99.90;;;;;;5507117;26;20068;-43
2024/04/11 01:41:23;;;;;;;14.85;4.25;;;12.70;99.90;;;;;;5507172;26;20171;-43
2024/04/11 01:43:49;;;;;;;8.88;3.38;;;12.70;99.90;;;;;;5507051;26;20052;-43
2024/04/11 01:46:18;;;;;;;13.68;3.50;;;12.70;99.90;;;;;;5507094;26;19990;-43
2024/04/11 01:48:46;;;;;;;15.05;4.90;;;12.70;99.90;;;;;;5506776;26;20039;-44
2024/04/11 01:51:13;;;;;;;20.55;4.78;;;12.70;99.90;;;;;;5506565;26;19993;-44
2024/04/11 01:53:40;;;;;;;18.20;4.80;;;12.60;99.90;;;;;;5475877;26;20049;-46
2024/04/11 01:56:05;;;;;;;12.77;4.05;;;12.60;99.90;;;;;;5507010;26;19986;-43
2024/04/11 01:58:31;;;;;;;26.58;5.13;;;12.60;99.90;;;;;;5506896;26;20161;-44
2024/04/11 02:01:09;;;;;;;19.33;5.13;;;12.60;99.90;;;;;;5506502;26;20060;-44
2024/04/11 02:03:41;;;;;;;25.20;4.55;;;12.60;99.90;;;;;;5506893;26;20087;-44
2024/04/11 02:06:07;;;;;;;24.33;4.50;;;12.60;99.90;;;;;;5505867;26;19997;-45
2024/04/11 02:08:35;;;;;;;18.55;4.22;;;12.60;99.90;;;;;;5506864;26;19989;-43
2024/04/11 02:11:06;;;;;;;15.90;3.83;;;12.50;99.90;;;;;;5505201;26;19990;-45
2024/04/11 02:13:31;;;;;;;16.52;4.13;;;12.50;99.90;;;;;;5506667;26;19997;-47
2024/04/11 02:15:59;;;;;;;15.98;4.45;;;12.50;99.90;;;;;;5506747;26;19990;-45
2024/04/11 02:18:27;;;;;;;13.80;3.88;;;12.50;99.90;;;;;;5505872;26;19993;-46
2024/04/11 02:20:55;;;;;;;15.70;3.97;;;12.50;99.90;;;;;;5506276;26;19990;-45
2024/04/11 02:23:20;;;;;;;16.40;4.32;;;12.50;99.90;;;;;;5506538;26;19991;-43
2024/04/11 02:25:51;;;;;;;16.77;3.63;;;12.50;99.90;;;;;;5505729;26;19993;-43
2024/04/11 02:28:19;;;;;;;21.13;4.85;;;12.50;99.90;;;;;;5506362;26;19986;-44
2024/04/11 02:30:45;;;;;;;15.73;4.07;;;12.50;99.90;;;;;;5506269;26;19986;-44
2024/04/11 02:33:10;;;;;;;13.55;3.30;;;12.60;99.90;;;;;;5505672;26;19990;-43
2024/04/11 02:35:39;;;;;;;16.02;3.90;;;12.50;99.90;;;;;;5506385;26;19986;-43
2024/04/11 02:38:05;;;;;;;14.38;3.90;;;12.60;99.90;;;;;;5506267;26;19982;-43
2024/04/11 02:40:31;;;;;;;13.50;4.32;;;12.60;99.90;;;;;;5505492;26;19990;-43
2024/04/11 02:42:56;;;;;;;20.17;3.70;;;12.60;99.90;;;;;;5504958;26;20148;-43
2024/04/11 02:45:22;;;;;;;16.95;3.33;;;12.60;99.90;;;;;;5506170;26;20046;-43
2024/04/11 02:47:47;;;;;;;13.45;3.15;;;12.60;99.90;;;;;;5506270;26;20031;-43
2024/04/11 02:50:20;;;;;;;12.85;3.15;;;12.60;99.90;;;;;;5506142;26;20046;-43
2024/04/11 02:52:45;;;;;;;17.75;4.70;;;12.50;99.90;;;;;;5505851;26;20076;-43
2024/04/11 02:55:14;;;;;;;17.38;3.80;;;12.50;99.90;;;;;;5505719;26;19990;-42
2024/04/11 02:57:42;;;;;;;15.67;2.97;;;12.50;99.90;;;;;;5506130;26;20036;-42
2024/04/11 03:00:09;;;;;;;12.63;4.03;;;12.60;99.90;;;;;;5505996;26;19994;-43
2024/04/11 03:02:35;;;;;;;12.35;3.50;;;12.60;99.90;;;;;;5505880;26;20036;-46
2024/04/11 03:05:01;;;;;;;11.60;2.85;;;12.60;99.90;;;;;;5505099;26;20094;-45
2024/04/11 03:07:27;;;;;;;9.45;3.42;;;12.60;99.90;;;;;;5505870;26;19986;-44
2024/04/11 03:09:53;;;;;;;15.52;3.55;;;12.60;99.90;;;;;;5505741;26;19989;-43
2024/04/11 03:12:23;;;;;;;15.13;3.83;;;12.60;99.90;;;;;;5504833;26;19988;-43
2024/04/11 03:14:49;;;;;;;15.50;3.45;;;12.60;99.90;;;;;;5505791;26;19990;-43
2024/04/11 03:17:14;;;;;;;16.33;4.32;;;12.70;99.90;;;;;;5505378;26;20354;-43
2024/04/11 03:19:40;;;;;;;12.85;3.70;;;12.60;99.90;;;;;;5505411;26;19990;-44
2024/04/11 03:22:06;;;;;;;15.88;3.00;;;12.60;99.90;;;;;;5505473;26;19993;-43
2024/04/11 03:24:32;;;;;;;13.60;3.30;;;12.70;99.90;;;;;;5505541;26;19997;-43
2024/04/11 03:27:00;;;;;;;17.40;3.53;;;12.70;99.90;;;;;;5505279;26;19990;-45
2024/04/11 03:29:27;;;;;;;9.80;2.85;;;12.70;99.90;;;;;;5505610;26;20156;-44
2024/04/11 03:31:54;;;;;;;7.65;2.88;;;12.70;99.90;;;;;;5505593;26;20094;-47
2024/04/11 03:34:23;;;;;;;10.15;3.03;;;12.70;99.90;;;;;;5504122;26;19990;-46
2024/04/11 03:36:54;;;;;;;12.00;3.05;;;12.70;99.90;;;;;;5505344;26;20051;-45
2024/04/11 03:39:20;;;;;;;13.98;2.88;;;12.70;99.90;;;;;;5505111;26;19990;-44
2024/04/11 03:41:48;;;;;;;9.68;2.63;;;12.70;99.90;;;;;;5505378;26;20030;-44
2024/04/11 03:44:15;;;;;;;10.35;3.15;;;12.70;99.90;;;;;;5505172;26;19990;-43
2024/04/11 03:46:41;;;;;;;13.38;2.90;;;12.80;99.90;;;;;;5505200;26;20043;-43
2024/04/11 03:49:07;;;;;;;12.75;2.92;;;12.80;99.90;;;;;;5504814;26;19986;-43
2024/04/11 03:51:33;;;;;;;13.60;3.13;;;12.80;99.90;;;;;;5504690;26;19990;-43
2024/04/11 03:54:00;;;;;;;14.60;3.55;;;12.80;99.90;;;;;;5506626;26;20163;-43
2024/04/11 03:56:27;;;;;;;11.10;3.30;;;12.80;99.90;;;;;;5507867;26;19992;-46
2024/04/11 03:58:56;;;;;;;11.88;3.05;;;12.80;99.90;;;;;;5507693;26;20049;-45
2024/04/11 04:01:22;;;;;;;11.30;3.08;;;12.80;99.90;;;;;;5507791;26;20036;-46
2024/04/11 04:03:49;;;;;;;10.90;3.10;;;12.80;99.90;;;;;;5508637;26;20056;-43
2024/04/11 04:06:15;;;;;;;10.55;2.88;;;12.80;99.90;;;;;;5508644;26;19990;-42
2024/04/11 04:08:45;;;;;;;17.45;3.40;;;12.80;99.90;;;;;;5508497;26;20044;-43
2024/04/11 04:11:11;;;;;;;15.15;3.40;;;12.80;99.90;;;;;;5507247;26;19997;-43
2024/04/11 04:13:37;;;;;;;10.93;3.13;;;12.80;99.90;;;;;;5508412;26;19990;-43
2024/04/11 04:16:08;;;;;;;11.73;2.72;;;12.70;99.90;;;;;;5508584;26;20000;-43
2024/04/11 04:18:36;;;;;;;14.75;3.97;;;12.70;99.90;;;;;;5508439;26;19986;-44
2024/04/11 04:21:02;;;;;;;18.10;4.00;;;12.70;99.90;;;;;;5508044;26;19997;-43
2024/04/11 04:23:28;;;;;;;15.27;3.88;;;12.70;99.90;;;;;;5508331;26;19986;-45
2024/04/11 04:26:07;;;;;;;15.13;3.05;;;12.60;99.90;;;;;;5508371;26;19990;-46
2024/04/11 04:28:34;;;;;;;12.98;3.40;;;12.60;99.90;;;;;;5508324;26;19990;-45
2024/04/11 04:31:16;;;;;;;15.90;4.53;;;12.50;99.90;;;;;;5507914;26;20014;-44
2024/04/11 04:33:48;;;;;;;19.83;4.88;;;12.50;99.90;;;;;;5507831;26;19990;-45
2024/04/11 04:36:20;;;;;;;17.85;4.63;;;12.50;99.90;;;;;;5507089;26;20001;-43
2024/04/11 04:38:46;;;;;;;29.40;6.63;;;12.40;99.90;;;;;;5507243;26;19986;-46
2024/04/11 04:41:12;;;;;;;24.27;4.72;;;12.40;99.90;;;;;;5507754;26;20164;-46
2024/04/11 04:43:40;;;;;;;25.85;5.60;;;12.40;99.90;;;;;;5507611;26;19986;-46
2024/04/11 04:46:06;;;;;;;21.30;5.82;;;12.40;99.90;;;;;;5507018;26;20035;-43
2024/04/11 04:48:32;;;;;;;20.85;5.35;;;12.30;99.90;;;;;;5508061;26;20002;-44
2024/04/11 04:50:59;;;;;;;22.20;5.32;;;12.30;99.90;;;;;;5507440;26;20001;-44
2024/04/11 04:53:25;;;;;;;14.40;3.97;;;12.30;99.90;;;;;;5507721;26;19986;-43
2024/04/11 04:55:52;;;;;;;16.52;4.65;;;12.30;99.90;;;;;;5507553;26;20168;-43
2024/04/11 04:58:21;;;;;;;20.15;4.30;;;12.30;99.90;;;;;;5507796;26;20091;-43
2024/04/11 05:00:46;;;;;;;25.02;4.25;;;12.30;99.90;;;;;;5507540;26;20048;-43
2024/04/11 05:03:12;;;;;;;17.52;4.10;;;12.30;99.90;;;;;;5507390;26;19998;-43
2024/04/11 05:05:39;;;;;;;21.92;4.85;;;12.20;99.90;;;;;;5505969;26;20080;-43
2024/04/11 05:08:07;;;;;;;23.40;4.78;;;12.30;99.90;;;;;;5507616;26;19990;-43
2024/04/11 05:10:37;;;;;;;16.48;5.18;;;12.20;99.90;;;;;;5507694;26;19986;-43
2024/04/11 05:13:09;;;;;;;20.58;5.28;;;12.20;99.90;;;;;;5507156;26;20040;-43
2024/04/11 05:15:38;;;;;;;26.38;7.93;;;12.20;99.90;;;;;;5507013;26;19997;-43
2024/04/11 05:18:05;;;;;;;29.17;8.82;;;12.20;99.90;;;;;;5507295;26;20087;-45
2024/04/11 05:20:33;;;;;;;32.45;9.00;;;12.20;99.90;;;;;;5507143;26;19990;-46
2024/04/11 05:22:59;;;;;;;20.25;4.93;;;12.10;99.90;;;;;;5506807;26;19986;-46
2024/04/11 05:25:30;;;;;;;22.38;5.65;;;12.10;99.90;;;;;;5507264;26;20034;-44
2024/04/11 05:27:56;;;;;;;25.35;6.53;;;12.10;99.90;;;;;;5507343;26;19989;-42
2024/04/11 05:30:21;;;;;;;18.83;4.82;;;12.10;99.90;;;;;;5507116;26;19986;-44
2024/04/11 05:32:47;;;;;;;19.90;5.25;;;12.10;99.90;;;;;;5506801;26;19997;-43
2024/04/11 05:35:13;;;;;;;23.05;4.85;;;12.10;99.90;;;;;;5506695;26;20056;-44
2024/04/11 05:37:45;;;;;;;21.48;4.82;;;12.10;99.90;;;;;;5507015;26;19990;-43
2024/04/11 05:40:12;;;;;;;23.88;5.47;;;12.10;99.90;;;;;;5506837;26;19990;-46
2024/04/11 05:42:44;;;;;;;25.25;6.15;;;12.20;99.90;;;;;;5507001;26;19994;-44
2024/04/11 05:45:16;;;;;;;27.52;7.78;;;12.20;99.90;;;;;;5506532;26;19998;-44
2024/04/11 05:47:43;;;;;;;25.05;6.72;;;12.20;99.90;;;;;;5505573;26;19997;-43
2024/04/11 05:50:09;;;;;;;27.77;8.05;;;12.20;99.90;;;;;;5506305;26;19990;-44
2024/04/11 05:52:35;;;;;;;23.52;6.03;;;12.20;99.90;;;;;;5506696;26;19990;-44
2024/04/11 05:55:02;;;;;;;34.58;8.10;;;12.20;99.90;;;;;;5506423;26;20047;-46
2024/04/11 05:57:28;;;;;;;35.17;7.68;;;12.20;99.90;;;;;;5506701;26;19990;-44
2024/04/11 05:59:55;;;;;;;24.63;6.88;;;12.20;99.90;;;;;;5506496;26;19987;-43
2024/04/11 06:02:21;;;;;;;33.05;6.38;;;12.20;99.90;;;;;;5506470;26;20043;-42
2024/04/11 06:04:47;;;;;;;21.65;7.50;;;12.10;99.90;;;;;;5506550;26;20001;-42
2024/04/11 06:07:14;;;;;;;22.10;5.00;;;12.10;99.90;;;;;;5506157;26;19991;-42
2024/04/11 06:09:41;;;;;;;23.80;5.72;;;12.20;99.90;;;;;;5506678;26;19990;-43
2024/04/11 06:12:08;;;;;;;24.08;6.07;;;12.20;99.90;;;;;;5506579;26;20091;-43
2024/04/11 06:14:34;;;;;;;21.02;5.05;;;12.30;99.90;;;;;;5506436;26;19990;-41
2024/04/11 06:17:00;;;;;;;27.30;6.20;;;12.30;99.90;;;;;;5504344;26;19997;-43
2024/04/11 06:19:25;;;;;;;22.42;6.15;;;12.30;99.90;;;;;;5506132;26;19990;-42
2024/04/11 06:21:54;;;;;;;29.92;6.68;;;12.30;99.90;;;;;;5505432;26;20102;-43
2024/04/11 06:24:20;;;;;;;26.75;6.25;;;12.40;99.90;;;;;;5506267;26;19986;-42
2024/04/11 06:26:46;;;;;;;30.63;6.28;;;12.40;99.90;;;;;;5505951;26;20035;-42
2024/04/11 06:29:14;;;;;;;25.58;7.43;;;12.50;99.90;;;;;;5505492;26;19989;-43
2024/04/11 06:31:40;;;;;;;31.55;7.93;;;12.60;99.90;;;;;;5505775;26;19998;-43
2024/04/11 06:34:05;;;;;;;26.15;5.63;;;12.70;99.90;;;;;;5505260;26;20110;-44
2024/04/11 06:36:33;;;;;;;29.67;7.10;;;12.80;99.90;;;;;;5505600;26;20040;-43
2024/04/11 06:38:59;;;;;;;25.05;5.57;;;12.90;99.90;;;;;;5504866;26;20077;-42
2024/04/11 06:41:27;;;;;;;28.48;6.45;;;13.00;99.90;;;;;;5504973;26;19998;-42
2024/04/11 06:43:53;;;;;;;31.15;6.20;;;13.00;99.90;;;;;;5505477;26;20001;-43
2024/04/11 06:46:18;;;;;;;24.85;6.22;;;13.00;99.90;;;;;;5505029;26;19990;-42
2024/04/11 06:48:45;;;;;;;19.83;5.47;;;13.00;99.90;;;;;;5505813;26;19990;-43
2024/04/11 06:51:19;;;;;;;25.75;5.50;;;13.10;99.90;;;;;;5505186;26;20055;-44
2024/04/11 06:53:46;;;;;;;26.95;6.35;;;13.10;99.90;;;;;;5503852;26;19994;-46
2024/04/11 06:56:15;;;;;;;21.20;5.28;;;13.20;99.90;;;;;;5505918;26;20008;-43
2024/04/11 06:58:42;;;;;;;31.93;6.23;;;13.30;99.90;;;;;;5505490;26;20018;-43
2024/04/11 07:01:09;;;;;;;23.00;5.40;;;13.30;99.90;;;;;;5504798;26;19986;-45
2024/04/11 07:03:39;;;;;;;26.65;5.47;;;13.40;99.90;;;;;;5504412;26;20056;-42
2024/04/11 07:06:16;;;;;;;24.60;4.80;;;13.40;99.90;;;;;;5504838;26;19998;-41
2024/04/11 07:08:43;;;;;;;22.20;4.70;;;13.40;99.90;;;;;;5503839;26;20028;-42
2024/04/11 07:11:23;;;;;;;22.27;5.25;;;13.50;99.90;;;;;;5504721;26;20021;-45
2024/04/11 07:13:49;;;;;;;22.85;4.95;;;13.40;99.90;;;;;;5504885;26;20051;-44
2024/04/11 07:16:20;;;;;;;23.08;4.75;;;13.40;99.90;;;;;;5504921;26;20102;-43
2024/04/11 07:18:48;;;;;;;23.08;4.57;;;13.40;99.90;;;;;;5504275;26;20048;-42
2024/04/11 07:21:17;;;;;;;17.02;4.28;;;13.40;99.90;;;;;;5504425;26;20106;-46
2024/04/11 07:23:47;;;;;;;17.85;4.30;;;13.50;99.90;;;;;;5504427;26;19997;-42
2024/04/11 07:26:15;;;;;;;21.65;5.57;;;13.50;99.90;;;;;;5504396;26;20070;-43
2024/04/11 07:28:44;;;;;;;18.77;5.05;;;13.40;99.90;;;;;;5502547;26;19998;-43
2024/04/11 07:31:10;;;;;;;21.02;5.57;;;13.40;99.90;;;;;;5504206;26;20171;-43
2024/04/11 07:33:36;;;;;;;21.27;4.88;;;13.40;99.90;;;;;;5504349;26;19986;-44
2024/04/11 07:36:02;;;;;;;18.08;4.15;;;13.50;99.90;;;;;;5504450;26;19993;-43
2024/04/11 07:38:30;;;;;;;13.80;4.00;;;13.40;99.90;;;;;;5504314;26;19990;-47
2024/04/11 07:40:58;;;;;;;17.35;4.20;;;13.40;99.90;;;;;;5503183;26;19987;-44
2024/04/11 07:43:26;;;;;;;13.65;3.38;;;13.30;99.90;;;;;;5504042;26;20044;-44
2024/04/11 07:45:52;;;;;;;12.68;2.90;;;13.30;99.90;;;;;;5502460;26;20061;-44
2024/04/11 07:48:23;;;;;;;23.65;4.85;;;13.20;99.90;;;;;;5503581;26;19998;-43
2024/04/11 07:50:50;;;;;;;10.25;3.97;;;13.30;99.90;;;;;;5502586;26;19986;-44
2024/04/11 07:53:16;;;;;;;16.88;4.00;;;13.30;99.90;;;;;;5502570;26;20157;-44
2024/04/11 07:55:44;;;;;;;11.30;3.85;;;13.20;99.90;;;;;;5503390;26;19986;-46
2024/04/11 07:58:18;;;;;;;13.63;3.35;;;13.30;99.90;;;;;;5504083;26;19997;-45
2024/04/11 08:00:54;;;;;;;13.38;3.45;;;13.30;99.90;;;;;;5503148;26;19993;-46
2024/04/11 08:03:20;;;;;;;8.95;3.20;;;13.40;99.90;;;;;;5503707;26;19986;-45
2024/04/11 08:05:47;;;;;;;9.23;3.30;;;13.40;99.90;;;;;;5503648;26;19986;-45
2024/04/11 08:08:13;;;;;;;12.18;4.28;;;13.40;99.90;;;;;;5503444;26;20014;-45
2024/04/11 08:10:38;;;;;;;14.15;5.28;;;13.30;99.90;;;;;;5502856;26;20225;-42
2024/04/11 08:13:04;;;;;;;13.55;5.32;;;13.20;99.90;;;;;;5502215;26;19990;-43
2024/04/11 08:15:30;;;;;;;18.08;5.97;;;13.30;99.90;;;;;;5502491;26;19986;-43
2024/04/11 08:17:57;;;;;;;15.10;4.78;;;13.30;99.90;;;;;;5502696;26;20036;-44
2024/04/11 08:20:23;;;;;;;19.63;6.55;;;13.30;99.90;;;;;;5503271;26;20161;-44
2024/04/11 08:22:48;;;;;;;22.65;10.48;;;13.40;99.90;;;;;;5502864;26;19989;-44
2024/04/11 08:25:14;;;;;;;17.73;7.10;;;13.50;99.90;;;;;;5502621;26;20020;-46
2024/04/11 08:27:43;;;;;;;19.63;7.75;;;13.70;99.90;;;;;;5502734;26;19991;-48
2024/04/11 08:30:11;;;;;;;20.50;7.38;;;13.80;99.90;;;;;;5502966;26;19982;-48
2024/04/11 08:32:45;;;;;;;20.33;7.18;;;13.90;99.90;;;;;;5502454;26;20173;-47
2024/04/11 08:35:12;;;;;;;15.95;5.72;;;14.00;99.90;;;;;;5501557;26;20060;-48
2024/04/11 08:37:38;;;;;;;19.30;5.07;;;14.20;99.90;;;;;;5501904;26;20044;-45
2024/04/11 08:40:10;;;;;;;19.38;4.45;;;14.40;99.90;;;;;;5503317;26;20030;-46
2024/04/11 08:42:42;;;;;;;22.13;4.88;;;14.50;99.90;;;;;;5505673;26;19990;-48
2024/04/11 08:45:08;;;;;;;16.48;4.68;;;14.50;99.90;;;;;;5504921;26;20001;-46
2024/04/11 08:47:34;;;;;;;13.93;4.78;;;14.50;99.90;;;;;;5505095;26;19997;-45
2024/04/11 08:50:00;;;;;;;18.40;5.57;;;14.50;99.90;;;;;;5506470;26;19990;-48
2024/04/11 08:52:29;;;;;;;10.82;4.25;;;14.60;99.90;;;;;;5505394;26;20031;-49
2024/04/11 08:54:55;;;;;;;18.38;4.63;;;14.80;99.90;;;;;;5504888;26;20053;-48
2024/04/11 08:57:21;;;;;;;14.27;4.70;;;14.80;99.90;;;;;;5505286;26;19986;-48
2024/04/11 08:59:48;;;;;;;18.33;5.03;;;14.80;99.90;;;;;;5504975;26;20161;-49
2024/04/11 09:02:13;;;;;;;14.90;4.13;;;14.90;99.90;;;;;;5505644;26;20085;-49
2024/04/11 09:04:39;;;;;;;14.35;4.53;;;14.80;99.90;;;;;;5506057;26;20006;-49
2024/04/11 09:07:04;;;;;;;14.25;3.97;;;14.80;99.90;;;;;;5504853;26;20010;-49
2024/04/11 09:09:31;;;;;;;16.33;3.80;;;14.70;99.90;;;;;;5506234;26;20032;-49
2024/04/11 09:11:56;;;;;;;15.60;3.95;;;14.70;99.90;;;;;;5505885;26;19994;-45
2024/04/11 09:14:23;;;;;;;15.82;3.70;;;14.80;99.90;;;;;;5505899;26;19994;-49
2024/04/11 09:17:04;;;;;;;16.33;4.18;;;14.80;99.90;;;;;;5505551;26;20186;-46
2024/04/11 09:19:39;;;;;;;18.08;4.70;;;14.80;99.90;;;;;;5504882;26;20152;-45
2024/04/11 09:22:21;;;;;;;15.75;4.22;;;14.90;99.90;;;;;;5505953;26;20013;-46
2024/04/11 09:24:47;;;;;;;16.73;4.35;;;14.90;99.90;;;;;;5505890;26;19994;-48
2024/04/11 09:27:16;;;;;;;14.05;4.03;;;14.90;99.90;;;;;;5505034;26;19990;-49
2024/04/11 09:29:43;;;;;;;20.90;4.40;;;15.00;99.90;;;;;;5505567;26;19986;-46
2024/04/11 09:32:11;;;;;;;14.88;4.15;;;15.00;99.90;;;;;;5505396;26;19990;-47
2024/04/11 09:34:38;;;;;;;12.63;3.42;;;15.00;99.90;;;;;;5505137;26;20179;-47
2024/04/11 09:37:05;;;;;;;15.07;3.70;;;15.00;99.90;;;;;;5505682;26;19990;-46
2024/04/11 09:39:46;;;;;;;12.30;3.40;;;15.00;99.90;;;;;;5474921;26;19994;-48
2024/04/11 09:42:18;;;;;;;19.42;4.15;;;15.10;99.90;;;;;;5505325;26;19990;-49
2024/04/11 09:44:50;;;;;;;12.88;3.72;;;15.20;99.90;;;;;;5504892;26;19990;-47
2024/04/11 09:47:18;;;;;;;8.23;2.92;;;15.10;99.90;;;;;;5503678;26;20005;-45
2024/04/11 09:49:59;;;;;;;15.65;3.65;;;15.20;99.90;;;;;;5503783;26;20056;-48
2024/04/11 09:52:30;;;;;;;12.95;4.03;;;15.20;99.90;;;;;;5504978;26;20013;-48
2024/04/11 09:54:56;;;;;;;11.57;3.45;;;15.10;99.90;;;;;;5504614;26;20056;-44
2024/04/11 09:57:23;;;;;;;11.23;3.85;;;15.00;99.90;;;;;;5504740;26;20059;-45
2024/04/11 09:59:55;;;;;;;10.93;4.60;;;15.10;99.90;;;;;;5504215;26;20160;-45
2024/04/11 10:02:21;;;;;;;17.48;3.58;;;14.90;99.90;;;;;;5504431;26;20044;-46
2024/04/11 10:04:47;;;;;;;9.27;2.90;;;14.90;99.90;;;;;;5504475;26;19998;-44
2024/04/11 10:07:19;;;;;;;15.65;2.97;;;14.70;99.90;;;;;;5505174;26;19990;-48
2024/04/11 10:09:49;;;;;;;9.38;3.13;;;14.50;99.90;;;;;;5504965;26;20040;-48
2024/04/11 10:12:18;;;;;;;14.25;3.72;;;14.40;99.90;;;;;;5505001;26;20002;-45
2024/04/11 10:14:44;;;;;;;17.00;4.35;;;14.40;99.90;;;;;;5505540;26;20006;-45
2024/04/11 10:17:13;;;;;;;12.75;3.28;;;14.80;99.90;;;;;;5473843;26;20217;-45
2024/04/11 10:19:43;;;;;;;11.48;2.85;;;15.00;99.90;;;;;;5504410;26;19993;-45
2024/04/11 10:22:09;;;;;;;25.55;6.68;;;14.80;99.90;;;;;;5504297;26;19986;-45
2024/04/11 10:24:36;;;;;;;27.23;11.25;;;14.30;99.90;;;;;;5504350;26;19986;-44
2024/04/11 10:27:29;;;;;;;14.60;5.47;;;14.40;99.90;;;;;;5504620;26;19994;-45
2024/04/11 10:29:56;;;;;;;14.00;3.78;;;14.50;99.90;;;;;;5503134;26;19998;-45
2024/04/11 10:32:22;;;;;;;60.75;37.38;;;14.40;99.90;;;;;;5503991;26;19997;-45
2024/04/11 10:34:57;;;;;;;32.28;11.20;;;14.50;99.90;;;;;;5504620;26;19993;-46
2024/04/11 10:37:26;;;;;;;21.33;6.68;;;14.70;99.90;;;;;;5504934;26;19996;-44
2024/04/11 10:39:58;;;;;;;25.60;7.22;;;14.60;99.90;;;;;;5504481;26;19993;-44
2024/04/11 10:42:37;;;;;;;36.03;7.70;;;14.30;99.90;;;;;;5504729;26;20038;-45
2024/04/11 10:45:12;;;;;;;32.30;6.93;;;14.20;99.90;;;;;;5504222;26;19990;-45
2024/04/11 10:47:41;;;;;;;28.75;7.07;;;14.20;99.90;;;;;;5503541;26;20014;-44
2024/04/11 10:50:09;;;;;;;30.70;6.80;;;14.20;99.90;;;;;;5504034;26;20040;-44
2024/04/11 10:52:38;;;;;;;30.30;7.32;;;14.30;99.90;;;;;;5504487;26;19990;-45
2024/04/11 10:55:12;;;;;;;26.43;6.60;;;14.30;99.90;;;;;;5503694;26;20040;-43
2024/04/11 10:57:44;;;;;;;26.02;6.53;;;14.40;99.90;;;;;;5503693;26;20219;-45
2024/04/11 11:00:10;;;;;;;29.92;5.47;;;14.30;99.90;;;;;;5504422;26;19986;-44
2024/04/11 11:02:38;;;;;;;31.92;5.38;;;14.20;99.90;;;;;;5503679;26;19993;-44
2024/04/11 11:05:07;;;;;;;30.85;6.22;;;14.30;99.90;;;;;;5502208;26;19990;-44
2024/04/11 11:07:33;;;;;;;34.63;6.60;;;14.20;99.90;;;;;;5503183;26;19993;-45
2024/04/11 11:09:59;;;;;;;25.85;5.60;;;14.10;99.90;;;;;;5503837;26;19993;-44
2024/04/11 11:12:25;;;;;;;27.40;5.85;;;14.00;99.90;;;;;;5503642;26;19986;-44
2024/04/11 11:14:53;;;;;;;31.40;6.10;;;14.10;99.90;;;;;;5503047;26;19996;-44
2024/04/11 11:17:19;;;;;;;19.55;4.40;;;14.20;99.90;;;;;;5504045;26;19997;-45
2024/04/11 11:19:49;;;;;;;25.70;6.88;;;14.30;99.90;;;;;;5503752;26;20026;-44
2024/04/11 11:22:18;;;;;;;26.67;4.75;;;14.20;99.90;;;;;;5503911;26;19990;-44
2024/04/11 11:24:44;;;;;;;27.02;5.10;;;14.20;99.90;;;;;;5503403;26;20155;-42
2024/04/11 11:27:09;;;;;;;24.20;6.10;;;14.20;99.90;;;;;;5503222;26;20002;-44
2024/04/11 11:29:42;;;;;;;31.27;5.95;;;14.20;99.90;;;;;;5502333;26;19990;-45
2024/04/11 11:32:18;;;;;;;29.73;5.47;;;14.30;99.90;;;;;;5502017;26;20057;-43
2024/04/11 11:34:46;;;;;;;22.85;4.65;;;14.40;99.90;;;;;;5503132;26;20036;-43
2024/04/11 11:37:12;;;;;;;25.58;5.25;;;14.30;99.90;;;;;;5502888;26;19986;-44
2024/04/11 11:39:42;;;;;;;22.20;4.95;;;14.30;99.90;;;;;;5503253;26;19990;-44
2024/04/11 11:42:08;;;;;;;;;;;14.20;99.90;;;;;;5503002;26;19987;-44
2024/04/11 11:47:34;;;;;;;30.80;5.72;;;14.30;99.90;;;;;;5503854;26;19998;-42
2024/04/11 11:50:07;;;;;;;20.45;5.40;;;14.50;99.90;;;;;;5502843;26;20156;-42
2024/04/11 11:52:34;;;;;;;28.30;5.45;;;14.50;99.90;;;;;;5502866;26;19986;-43
2024/04/11 11:55:00;;;;;;;17.73;4.63;;;14.40;99.90;;;;;;5501225;26;19986;-43
2024/04/11 11:57:39;;;;;;;18.52;3.75;;;14.30;99.90;;;;;;5502795;26;19997;-42
2024/04/11 12:00:25;;;;;;;25.50;5.15;;;14.20;99.90;;;;;;5503314;26;19990;-45
2024/04/11 12:02:59;;;;;;;20.25;4.55;;;14.30;99.90;;;;;;5502501;26;19993;-44
2024/04/11 12:05:33;;;;;;;23.17;4.60;;;14.60;99.90;;;;;;5472543;26;19990;-45
2024/04/11 12:07:59;;;;;;;25.65;3.92;;;14.80;99.90;;;;;;5503253;26;19990;-44
2024/04/11 12:10:29;;;;;;;18.30;3.72;;;14.80;99.90;;;;;;5502071;26;20047;-44
2024/04/11 12:13:18;;;;;;;10.23;2.72;;;14.70;99.90;;;;;;5502021;26;20040;-44
2024/04/11 12:15:51;;;;;;;13.95;3.78;;;14.70;99.90;;;;;;5504781;26;20184;-44
2024/04/11 12:18:22;;;;;;;12.88;2.63;;;14.70;99.90;;;;;;5506547;26;19996;-44
2024/04/11 12:20:51;;;;;;;10.77;2.63;;;14.80;99.90;;;;;;5505176;26;19990;-44
2024/04/11 12:23:19;;;;;;;10.07;3.17;;;14.90;99.90;;;;;;5505804;26;20169;-44
2024/04/11 12:25:45;;;;;;;14.70;3.10;;;15.20;99.90;;;;;;5504654;26;20031;-44
2024/04/11 12:28:11;;;;;;;16.98;2.65;;;15.00;99.90;;;;;;5505966;26;19986;-47
2024/04/11 12:30:38;;;;;;;13.38;2.85;;;15.10;99.90;;;;;;5505955;26;19997;-46
2024/04/11 12:33:08;;;;;;;8.77;2.13;;;15.50;99.90;;;;;;5504932;26;19990;-43
2024/04/11 12:35:54;;;;;;;8.60;2.03;;;15.70;99.90;;;;;;5505200;26;20156;-44
2024/04/11 12:38:21;;;;;;;6.68;1.88;;;15.80;99.90;;;;;;5505638;26;19989;-44
2024/04/11 12:40:48;;;;;;;6.00;2.22;;;15.70;99.90;;;;;;5504755;26;20002;-43
2024/04/11 12:43:20;;;;;;;6.40;2.33;;;15.80;99.90;;;;;;5504447;26;19989;-44
2024/04/11 12:45:52;;;;;;;13.93;4.45;;;16.10;99.90;;;;;;5505416;26;20077;-44